Time;durP1;ratioP1;P1;durP2;ratioP2;P2;SDS_P1;SDS_P2;PMS_P1;PMS_P2;Temp;Humidity;BMP_temperature;BMP_pressure;BME280_temperature;BME280_humidity;BME280_pressure;Samples;Min_cycle;Max_cycle;Signal;HPM_P1;HPM_P2
2023/04/14 00:01:20;;;;;;;;;;;4.70;71.00;;;;;;4953680;28;19950;-77
2023/04/14 00:03:45;;;;;;;;;;;4.70;70.30;;;;;;4948431;28;19981;-78
2023/04/14 00:06:11;;;;;;;;;;;4.70;70.20;;;;;;4964227;28;20017;-77
2023/04/14 00:08:36;;;;;;;;;;;4.70;70.30;;;;;;4948786;28;19922;-78
2023/04/14 00:11:02;;;;;;;;;;;4.70;70.30;;;;;;4950188;28;20492;-77
2023/04/14 00:13:27;;;;;;;;;;;4.70;70.20;;;;;;4951689;28;19922;-76
2023/04/14 00:15:53;;;;;;;;;;;4.70;70.30;;;;;;4962866;28;19929;-78
2023/04/14 00:18:19;;;;;;;;;;;4.70;70.20;;;;;;4946403;28;19930;-76
2023/04/14 00:20:45;;;;;;;;;;;4.70;70.30;;;;;;4948048;28;19966;-78
2023/04/14 00:23:11;;;;;;;;;;;4.70;70.30;;;;;;4959999;28;19921;-77
2023/04/14 00:25:36;;;;;;;;;;;4.60;70.30;;;;;;4949459;28;19922;-77
2023/04/14 00:28:02;;;;;;;;;;;4.60;70.20;;;;;;4949439;28;19929;-77
2023/04/14 00:30:28;;;;;;;;;;;4.60;70.20;;;;;;4950404;28;19973;-77
2023/04/14 00:32:53;;;;;;;;;;;4.60;70.20;;;;;;4974932;28;19922;-78
2023/04/14 00:35:18;;;;;;;;;;;4.60;70.30;;;;;;4969825;28;19949;-78
2023/04/14 00:37:44;;;;;;;;;;;4.60;70.30;;;;;;4980342;28;20455;-77
2023/04/14 00:40:09;;;;;;;;;;;4.60;70.30;;;;;;4982255;28;19949;-78
2023/04/14 00:42:44;;;;;;;;;;;4.60;70.30;;;;;;4963557;28;19961;-77
2023/04/14 00:45:10;;;;;;;;;;;4.60;70.30;;;;;;4983958;28;20530;-77
2023/04/14 00:47:36;;;;;;;;;;;4.60;70.30;;;;;;4964326;28;19922;-77
2023/04/14 00:50:02;;;;;;;;;;;4.60;70.30;;;;;;4962925;28;20359;-78
2023/04/14 00:52:28;;;;;;;;;;;4.60;70.30;;;;;;4980386;28;20339;-77
2023/04/14 00:54:53;;;;;;;;;;;4.60;70.30;;;;;;4954752;28;19922;-77
2023/04/14 00:57:19;;;;;;;;;;;4.60;70.30;;;;;;4967692;28;19922;-78
2023/04/14 00:59:44;;;;;;;;;;;4.60;70.30;;;;;;4965705;28;19922;-77
2023/04/14 01:02:10;;;;;;;;;;;4.60;70.40;;;;;;4979698;28;20504;-77
2023/04/14 01:04:36;;;;;;;;;;;4.60;70.30;;;;;;4960690;28;19926;-78
2023/04/14 01:07:02;;;;;;;;;;;4.60;70.30;;;;;;4981673;28;19994;-77
2023/04/14 01:09:27;;;;;;;;;;;4.60;70.40;;;;;;4968759;28;19930;-78
2023/04/14 01:12:01;;;;;;;;;;;4.60;70.40;;;;;;4984288;28;19984;-78
2023/04/14 01:14:31;;;;;;;;;;;4.60;70.40;;;;;;4966266;28;20585;-77
2023/04/14 01:17:00;;;;;;;;;;;4.60;70.40;;;;;;4963730;28;19918;-77
2023/04/14 01:19:25;;;;;;;;;;;4.60;70.40;;;;;;4965388;28;19962;-77
2023/04/14 01:21:53;;;;;;;;;;;4.60;70.40;;;;;;4968956;28;20618;-78
2023/04/14 01:24:18;;;;;;;;;;;4.60;70.50;;;;;;4969948;28;19937;-78
2023/04/14 01:26:44;;;;;;;;;;;4.60;70.40;;;;;;4983133;28;19957;-78
2023/04/14 01:29:21;;;;;;;;;;;4.60;70.40;;;;;;4968484;28;19960;-77
2023/04/14 01:31:48;;;;;;;;;;;4.60;70.40;;;;;;4970794;28;19928;-78
2023/04/14 01:34:13;;;;;;;;;;;4.60;70.40;;;;;;4970942;28;20132;-79
2023/04/14 01:36:41;;;;;;;;;;;4.60;70.40;;;;;;4979671;28;19925;-76
2023/04/14 01:39:07;;;;;;;;;;;4.60;70.40;;;;;;4982649;28;19984;-77
2023/04/14 01:41:32;;;;;;;;;;;4.60;70.40;;;;;;4984562;28;19926;-78
2023/04/14 01:43:58;;;;;;;;;;;4.70;70.40;;;;;;4981937;28;20344;-77
2023/04/14 01:46:23;;;;;;;;;;;4.60;70.30;;;;;;4987262;28;19922;-77
2023/04/14 01:48:49;;;;;;;;;;;4.60;70.30;;;;;;4971447;28;19929;-76
2023/04/14 01:51:15;;;;;;;;;;;4.60;70.40;;;;;;4984621;28;19969;-77
2023/04/14 01:53:41;;;;;;;;;;;4.60;70.40;;;;;;4974270;28;19996;-77
2023/04/14 01:56:07;;;;;;;;;;;4.60;70.40;;;;;;4977509;28;19968;-77
2023/04/14 01:58:32;;;;;;;;;;;4.60;70.40;;;;;;4967694;28;19969;-77
2023/04/14 02:00:58;;;;;;;;;;;4.60;70.40;;;;;;4979662;28;20722;-78
2023/04/14 02:03:23;;;;;;;;;;;4.60;70.40;;;;;;4964855;28;19922;-77
2023/04/14 02:05:50;;;;;;;;;;;4.60;70.50;;;;;;4966670;28;20346;-77
2023/04/14 02:08:15;;;;;;;;;;;4.60;70.40;;;;;;4981976;28;19929;-78
2023/04/14 02:10:41;;;;;;;;;;;4.60;70.40;;;;;;4969170;28;19926;-78
2023/04/14 02:13:07;;;;;;;;;;;4.60;70.40;;;;;;4964257;28;19968;-77
2023/04/14 02:15:32;;;;;;;;;;;4.60;70.40;;;;;;4967703;28;20698;-75
2023/04/14 02:17:58;;;;;;;;;;;4.60;70.50;;;;;;4979653;28;19950;-78
2023/04/14 02:20:23;;;;;;;;;;;4.60;70.40;;;;;;4981942;28;19928;-77
2023/04/14 02:22:49;;;;;;;;;;;4.60;70.40;;;;;;4971734;28;19922;-77
2023/04/14 02:25:14;;;;;;;;;;;4.60;70.50;;;;;;4983013;28;19981;-77
2023/04/14 02:28:00;;;;;;;;;;;4.60;70.50;;;;;;4969545;28;19929;-77
2023/04/14 02:30:32;;;;;;;;;;;4.60;70.50;;;;;;4968891;28;19980;-77
2023/04/14 02:33:18;;;;;;;;;;;4.60;71.30;;;;;;4985246;28;19949;-77
2023/04/14 02:35:45;;;;;;;;;;;4.60;70.50;;;;;;4954578;28;19929;-77
2023/04/14 02:38:14;;;;;;;;;;;4.60;70.50;;;;;;4944239;28;19978;-78
2023/04/14 02:40:40;;;;;;;;;;;4.60;70.50;;;;;;4949257;28;19969;-77
2023/04/14 02:43:12;;;;;;;;;;;4.60;70.50;;;;;;4944696;28;20590;-77
2023/04/14 02:45:39;;;;;;;;;;;4.60;70.50;;;;;;4951506;28;19926;-77
2023/04/14 02:48:08;;;;;;;;;;;4.60;70.50;;;;;;4950527;28;19926;-77
2023/04/14 02:50:34;;;;;;;;;;;4.60;70.50;;;;;;4948933;28;19926;-77
2023/04/14 02:52:59;;;;;;;;;;;4.60;70.50;;;;;;4951657;28;19922;-78
2023/04/14 02:55:25;;;;;;;;;;;4.60;70.60;;;;;;4968510;28;19973;-78
2023/04/14 02:57:51;;;;;;;;;;;4.60;70.60;;;;;;4947081;28;19922;-78
2023/04/14 03:00:16;;;;;;;;;;;4.60;70.60;;;;;;4961514;28;19922;-77
2023/04/14 03:02:42;;;;;;;;;;;4.60;70.60;;;;;;4950688;28;19929;-77
2023/04/14 03:05:07;;;;;;;;;;;4.60;70.60;;;;;;4961903;28;19949;-78
2023/04/14 03:07:33;;;;;;;;;;;4.60;70.60;;;;;;4951885;28;19926;-78
2023/04/14 03:09:59;;;;;;;;;;;4.50;70.60;;;;;;4951675;28;19933;-78
2023/04/14 03:12:24;;;;;;;;;;;4.50;70.60;;;;;;4962242;28;19961;-77
2023/04/14 03:14:50;;;;;;;;;;;4.50;70.60;;;;;;4948350;28;19922;-77
2023/04/14 03:17:17;;;;;;;;;;;4.50;70.60;;;;;;4966353;28;19969;-77
2023/04/14 03:19:43;;;;;;;;;;;4.50;70.70;;;;;;4946736;28;19922;-77
2023/04/14 03:22:12;;;;;;;;;;;4.50;70.70;;;;;;4966150;28;19926;-77
2023/04/14 03:24:37;;;;;;;;;;;4.50;70.70;;;;;;4949786;28;19929;-78
2023/04/14 03:27:07;;;;;;;;;;;4.50;70.70;;;;;;4953661;28;19926;-78
2023/04/14 03:29:36;;;;;;;;;;;4.40;70.70;;;;;;4947999;28;20469;-78
2023/04/14 03:32:05;;;;;;;;;;;4.40;70.70;;;;;;4964568;28;19945;-78
2023/04/14 03:34:31;;;;;;;;;;;4.40;71.50;;;;;;4938661;28;19934;-78
2023/04/14 03:36:56;;;;;;;;;;;4.40;70.70;;;;;;4950264;28;19923;-77
2023/04/14 03:39:23;;;;;;;;;;;4.40;70.70;;;;;;4964200;28;19931;-77
2023/04/14 03:41:50;;;;;;;;;;;4.30;70.70;;;;;;4949640;28;19926;-77
2023/04/14 03:44:17;;;;;;;;;;;4.30;70.70;;;;;;4957776;28;19926;-78
2023/04/14 03:46:43;;;;;;;;;;;4.30;70.80;;;;;;4948627;28;19926;-78
2023/04/14 03:49:10;;;;;;;;;;;4.20;70.70;;;;;;4947249;28;20009;-77
2023/04/14 03:51:37;;;;;;;;;;;4.20;70.70;;;;;;4969903;28;19933;-76
2023/04/14 03:54:04;;;;;;;;;;;4.20;70.80;;;;;;4965095;28;19953;-77
2023/04/14 03:56:30;;;;;;;;;;;4.20;70.80;;;;;;4963642;28;20598;-77
2023/04/14 03:58:55;;;;;;;;;;;4.10;70.80;;;;;;4981226;28;19922;-76
2023/04/14 04:01:24;;;;;;;;;;;4.10;70.70;;;;;;4981577;28;19957;-78
2023/04/14 04:03:50;;;;;;;;;;;4.10;70.80;;;;;;4966584;28;19924;-76
2023/04/14 04:06:16;;;;;;;;;;;4.10;70.80;;;;;;4969968;28;19926;-77
2023/04/14 04:08:42;;;;;;;;;;;4.00;70.80;;;;;;4974265;28;19976;-78
2023/04/14 04:11:07;;;;;;;;;;;4.00;70.80;;;;;;4964971;28;19926;-76
2023/04/14 04:13:33;;;;;;;;;;;4.00;70.90;;;;;;4957082;28;20686;-77
2023/04/14 04:15:58;;;;;;;;;;;4.00;70.90;;;;;;4960039;28;19965;-78
2023/04/14 04:18:24;;;;;;;;;;;3.90;70.80;;;;;;4962274;28;19937;-77
2023/04/14 04:20:50;;;;;;;;;;;4.00;70.90;;;;;;4944403;28;19922;-77
2023/04/14 04:23:16;;;;;;;;;;;3.90;70.90;;;;;;4957409;28;19933;-77
2023/04/14 04:25:41;;;;;;;;;;;3.90;70.90;;;;;;4957937;28;20449;-78
2023/04/14 04:28:07;;;;;;;;;;;3.90;71.00;;;;;;4949568;28;19929;-77
2023/04/14 04:30:32;;;;;;;;;;;3.80;70.90;;;;;;5018032;28;19929;-77
2023/04/14 04:33:00;;;;;;;;;;;3.80;71.00;;;;;;5057237;28;20714;-77
2023/04/14 04:35:26;;;;;;;;;;;3.80;71.00;;;;;;5032158;28;19944;-75
2023/04/14 04:37:52;;;;;;;;;;;3.80;71.00;;;;;;5048203;28;19952;-77
2023/04/14 04:40:17;;;;;;;;;;;3.80;71.10;;;;;;5057090;28;19921;-77
2023/04/14 04:42:43;;;;;;;;;;;3.80;71.10;;;;;;5029713;28;20377;-77
2023/04/14 04:45:09;;;;;;;;;;;3.70;71.00;;;;;;5046653;28;19928;-77
2023/04/14 04:47:35;;;;;;;;;;;3.70;71.00;;;;;;5045051;28;19920;-76
2023/04/14 04:50:00;;;;;;;;;;;3.70;71.00;;;;;;5029322;28;20673;-77
2023/04/14 04:52:25;;;;;;;;;;;3.70;71.10;;;;;;5046565;28;19924;-76
2023/04/14 04:54:51;;;;;;;;;;;3.70;71.20;;;;;;5016164;28;20362;-77
2023/04/14 04:57:17;;;;;;;;;;;3.60;71.00;;;;;;5059966;28;19920;-77
2023/04/14 04:59:42;;;;;;;;;;;3.60;71.10;;;;;;5028030;28;19921;-77
2023/04/14 05:02:08;;;;;;;;;;;3.50;71.10;;;;;;5033148;28;19935;-77
2023/04/14 05:04:33;;;;;;;;;;;3.50;71.10;;;;;;5057719;28;20497;-78
2023/04/14 05:06:59;;;;;;;;;;;3.50;71.10;;;;;;5046445;28;19916;-77
2023/04/14 05:09:24;;;;;;;;;;;3.50;71.20;;;;;;5061764;28;19927;-77
2023/04/14 05:11:50;;;;;;;;;;;3.50;71.20;;;;;;5037563;28;20322;-77
2023/04/14 05:14:15;;;;;;;;;;;3.40;71.20;;;;;;5032876;28;19924;-77
2023/04/14 05:16:41;;;;;;;;;;;3.40;71.20;;;;;;5059972;28;19970;-77
2023/04/14 05:19:06;;;;;;;;;;;3.40;71.20;;;;;;5060879;28;20015;-77
2023/04/14 05:21:32;;;;;;;;;;;3.40;71.30;;;;;;5042534;28;19920;-77
2023/04/14 05:23:57;;;;;;;;;;;3.40;71.20;;;;;;5057127;28;20003;-76
2023/04/14 05:26:23;;;;;;;;;;;3.40;71.30;;;;;;5044921;28;19956;-76
2023/04/14 05:28:48;;;;;;;;;;;3.40;71.30;;;;;;5019366;28;19931;-76
2023/04/14 05:31:14;;;;;;;;;;;3.40;71.30;;;;;;5047801;28;20446;-77
2023/04/14 05:33:39;;;;;;;;;;;3.40;71.30;;;;;;5030858;28;19926;-77
2023/04/14 05:36:05;;;;;;;;;;;3.30;71.30;;;;;;5045585;28;19920;-76
2023/04/14 05:38:31;;;;;;;;;;;3.30;71.30;;;;;;5045683;28;20024;-76
2023/04/14 05:40:56;;;;;;;;;;;3.30;71.30;;;;;;5044155;28;20007;-76
2023/04/14 05:43:22;;;;;;;;;;;3.30;71.30;;;;;;5047184;28;19921;-77
2023/04/14 05:45:47;;;;;;;;;;;3.30;71.30;;;;;;5031244;28;19921;-77
2023/04/14 05:48:13;;;;;;;;;;;3.30;71.40;;;;;;5032092;28;20625;-77
2023/04/14 05:50:39;;;;;;;;;;;3.30;71.30;;;;;;5048787;28;20001;-77
2023/04/14 05:53:04;;;;;;;;;;;3.30;71.30;;;;;;5045102;28;20536;-77
2023/04/14 05:55:31;;;;;;;;;;;3.30;72.20;;;;;;5058274;28;20330;-75
2023/04/14 05:57:57;;;;;;;;;;;3.30;71.40;;;;;;5060009;28;19921;-77
2023/04/14 06:00:24;;;;;;;;;;;3.40;71.40;;;;;;5060570;28;19920;-77
2023/04/14 06:02:50;;;;;;;;;;;3.40;71.40;;;;;;5055504;28;20024;-75
2023/04/14 06:05:16;;;;;;;;;;;3.40;71.40;;;;;;5021301;28;20398;-77
2023/04/14 06:07:41;;;;;;;;;;;3.40;71.30;;;;;;5061286;28;19927;-77
2023/04/14 06:10:07;;;;;;;;;;;3.50;71.40;;;;;;5050000;28;19924;-78
2023/04/14 06:12:32;;;;;;;;;;;3.50;71.40;;;;;;5023222;28;19970;-77
2023/04/14 06:14:58;;;;;;;;;;;3.50;71.40;;;;;;5022356;28;19917;-77
2023/04/14 06:17:24;;;;;;;;;;;3.60;71.40;;;;;;5048614;28;20391;-76
2023/04/14 06:19:49;;;;;;;;;;;3.60;71.30;;;;;;5038880;28;19921;-76
2023/04/14 06:22:18;;;;;;;;;;;3.70;71.30;;;;;;5052465;28;19925;-77
2023/04/14 06:24:44;;;;;;;;;;;3.70;71.30;;;;;;5035190;28;20400;-76
2023/04/14 06:27:09;;;;;;;;;;;3.80;71.20;;;;;;5036238;28;20593;-77
2023/04/14 06:29:35;;;;;;;;;;;3.80;71.20;;;;;;5064120;28;19920;-75
2023/04/14 06:32:00;;;;;;;;;;;3.80;71.20;;;;;;5035823;28;20309;-77
2023/04/14 06:34:25;;;;;;;;;;;3.90;71.20;;;;;;5061033;28;19948;-77
2023/04/14 06:36:51;;;;;;;;;;;3.90;71.20;;;;;;5047410;28;21560;-78
2023/04/14 06:39:18;;;;;;;;;;;4.00;71.20;;;;;;5059324;28;19999;-78
2023/04/14 06:41:44;;;;;;;;;;;4.00;71.10;;;;;;5049760;28;19981;-78
2023/04/14 06:44:09;;;;;;;;;;;4.10;71.10;;;;;;5028722;28;19921;-77
2023/04/14 06:46:35;;;;;;;;;;;4.10;71.10;;;;;;5047277;28;21232;-76
2023/04/14 06:49:01;;;;;;;;;;;4.20;71.10;;;;;;5032294;28;19924;-77
2023/04/14 06:51:26;;;;;;;;;;;4.30;71.10;;;;;;5046529;28;19924;-77
2023/04/14 06:53:52;;;;;;;;;;;4.40;71.10;;;;;;5051037;28;20003;-78
2023/04/14 06:56:17;;;;;;;;;;;4.40;71.00;;;;;;5047528;28;19925;-75
2023/04/14 06:58:43;;;;;;;;;;;4.50;71.00;;;;;;5032469;28;20378;-77
2023/04/14 07:01:08;;;;;;;;;;;4.60;71.00;;;;;;5059777;28;19940;-77
2023/04/14 07:03:33;;;;;;;;;;;4.60;70.90;;;;;;5031402;28;20024;-76
2023/04/14 07:06:06;;;;;;;;;;;4.70;70.90;;;;;;5029782;28;20635;-78
2023/04/14 07:08:33;;;;;;;;;;;4.80;70.90;;;;;;5059916;28;19921;-77
2023/04/14 07:11:02;;;;;;;;;;;4.80;70.90;;;;;;5056257;28;19932;-77
2023/04/14 07:13:28;;;;;;;;;;;4.90;70.80;;;;;;5043809;28;20034;-77
2023/04/14 07:15:53;;;;;;;;;;;5.00;70.80;;;;;;5034329;28;20747;-77
2023/04/14 07:18:19;;;;;;;;;;;5.10;70.70;;;;;;5043865;28;19921;-78
2023/04/14 07:20:44;;;;;;;;;;;5.20;70.70;;;;;;5030209;28;19920;-77
2023/04/14 07:23:10;;;;;;;;;;;5.30;70.70;;;;;;5057030;28;19955;-78
2023/04/14 07:25:35;;;;;;;;;;;5.40;70.60;;;;;;5059280;28;19921;-76
2023/04/14 07:28:01;;;;;;;;;;;5.50;70.60;;;;;;5041998;28;19920;-77
2023/04/14 07:30:27;;;;;;;;;;;5.70;70.60;;;;;;5043162;28;20449;-76
2023/04/14 07:32:52;;;;;;;;;;;5.80;71.30;;;;;;5058880;28;19970;-77
2023/04/14 07:35:18;;;;;;;;;;;5.90;70.40;;;;;;5061182;28;20010;-76
2023/04/14 07:37:43;;;;;;;;;;;6.00;70.30;;;;;;5059037;28;20008;-77
2023/04/14 07:40:09;;;;;;;;;;;6.10;71.10;;;;;;5063385;28;20446;-77
2023/04/14 07:42:35;;;;;;;;;;;6.20;70.20;;;;;;5046825;28;19962;-76
2023/04/14 07:45:01;;;;;;;;;;;6.30;70.20;;;;;;5053817;28;19971;-78
2023/04/14 07:47:27;;;;;;;;;;;6.30;70.00;;;;;;5049501;28;19920;-77
2023/04/14 07:49:53;;;;;;;;;;;6.40;70.00;;;;;;5034737;28;20317;-77
2023/04/14 07:52:18;;;;;;;;;;;6.60;70.50;;;;;;5067676;28;20011;-78
2023/04/14 07:54:44;;;;;;;;;;;6.60;70.00;;;;;;5052623;28;20737;-78
2023/04/14 07:57:10;;;;;;;;;;;6.70;69.90;;;;;;5060217;28;19921;-77
2023/04/14 07:59:37;;;;;;;;;;;6.80;69.90;;;;;;5063739;28;20810;-76
2023/04/14 08:02:02;;;;;;;;;;;6.90;69.90;;;;;;5050468;28;19920;-77
2023/04/14 08:04:28;;;;;;;;;;;7.00;69.80;;;;;;5048962;28;20462;-78
2023/04/14 08:06:53;;;;;;;;;;;7.20;69.80;;;;;;5060869;28;20379;-78
2023/04/14 08:09:19;;;;;;;;;;;7.30;69.80;;;;;;5033563;28;19920;-78
2023/04/14 08:11:44;;;;;;;;;;;7.50;69.70;;;;;;5044016;28;19931;-77
2023/04/14 08:14:10;;;;;;;;;;;7.70;69.60;;;;;;5051278;28;19965;-77
2023/04/14 08:16:36;;;;;;;;;;;7.80;69.50;;;;;;5022307;28;20019;-76
2023/04/14 08:19:02;;;;;;;;;;;8.10;69.50;;;;;;5048989;28;19925;-77
2023/04/14 08:21:27;;;;;;;;;;;8.30;69.30;;;;;;5033099;28;20015;-76
2023/04/14 08:23:53;;;;;;;;;;;8.50;69.20;;;;;;5030914;28;19927;-77
2023/04/14 08:26:18;;;;;;;;;;;8.70;69.00;;;;;;5063917;28;19974;-77
2023/04/14 08:28:43;;;;;;;;;;;8.90;68.90;;;;;;5061822;28;19925;-78
2023/04/14 08:31:09;;;;;;;;;;;9.10;68.80;;;;;;5045936;28;20011;-77
2023/04/14 08:33:34;;;;;;;;;;;9.30;68.60;;;;;;5020831;28;19974;-76
2023/04/14 08:36:00;;;;;;;;;;;9.50;68.60;;;;;;5048691;28;20719;-77
2023/04/14 08:38:26;;;;;;;;;;;9.70;68.40;;;;;;5028914;28;20021;-77
2023/04/14 08:40:53;;;;;;;;;;;9.90;68.30;;;;;;5027020;28;19925;-78
2023/04/14 08:43:18;;;;;;;;;;;10.20;68.20;;;;;;5027784;28;19998;-78
2023/04/14 08:45:44;;;;;;;;;;;10.50;68.00;;;;;;5028802;28;20015;-78
2023/04/14 08:48:09;;;;;;;;;;;10.70;67.90;;;;;;5028155;28;19921;-78
2023/04/14 08:50:35;;;;;;;;;;;11.00;67.60;;;;;;5030939;28;19925;-77
2023/04/14 08:53:04;;;;;;;;;;;11.20;67.40;;;;;;5028270;28;19987;-77
2023/04/14 08:55:29;;;;;;;;;;;11.40;67.40;;;;;;5042276;28;20007;-77
2023/04/14 08:57:55;;;;;;;;;;;11.60;67.10;;;;;;5033235;28;21209;-78
2023/04/14 09:00:20;;;;;;;;;;;11.80;67.00;;;;;;5040865;28;19921;-77
2023/04/14 09:02:46;;;;;;;;;;;12.00;66.80;;;;;;5022640;28;19929;-79
2023/04/14 09:05:11;;;;;;;;;;;12.20;66.70;;;;;;5029072;28;19921;-78
2023/04/14 09:07:37;;;;;;;;;;;12.50;66.60;;;;;;5021632;28;19920;-77
2023/04/14 09:10:02;;;;;;;;;;;12.60;66.40;;;;;;5027407;28;20716;-77
2023/04/14 09:12:28;;;;;;;;;;;12.90;66.30;;;;;;5031707;28;19925;-78
2023/04/14 09:14:53;;;;;;;;;;;13.10;67.00;;;;;;5035806;28;20825;-78
2023/04/14 09:17:19;;;;;;;;;;;13.20;66.00;;;;;;5042386;28;19928;-78
2023/04/14 09:19:44;;;;;;;;;;;13.40;65.90;;;;;;5030930;28;19925;-78
2023/04/14 09:22:10;;;;;;;;;;;13.60;65.80;;;;;;5042508;28;19935;-78
2023/04/14 09:24:35;;;;;;;;;;;13.80;65.70;;;;;;5042323;28;19921;-77
2023/04/14 09:27:03;;;;;;;;;;;14.00;65.60;;;;;;5025542;28;21440;-78
2023/04/14 09:29:29;;;;;;;;;;;14.30;65.30;;;;;;5031224;28;19969;-77
2023/04/14 09:31:55;;;;;;;;;;;14.50;65.20;;;;;;5037458;28;20622;-76
2023/04/14 09:34:20;;;;;;;;;;;14.70;65.00;;;;;;5034641;28;19952;-79
2023/04/14 09:37:02;;;;;;;;;;;14.80;64.80;;;;;;5045570;28;20345;-77
2023/04/14 09:39:28;;;;;;;;;;;15.00;64.70;;;;;;5031290;28;19933;-78
2023/04/14 09:41:53;;;;;;;;;;;15.10;64.60;;;;;;5031903;28;20662;-78
2023/04/14 09:44:18;;;;;;;;;;;15.20;64.40;;;;;;5045039;28;20008;-78
2023/04/14 09:47:06;;;;;;;;;;;15.30;64.40;;;;;;5041654;28;19925;-78
2023/04/14 09:49:31;;;;;;;;;;;15.30;64.40;;;;;;5031286;28;20629;-78
2023/04/14 09:52:02;;;;;;;;;;;15.40;64.40;;;;;;5023411;28;19921;-77
2023/04/14 09:54:27;;;;;;;;;;;15.40;64.40;;;;;;5027567;28;19917;-77
2023/04/14 09:56:53;;;;;;;;;;;15.50;64.30;;;;;;5033747;28;20291;-78
2023/04/14 09:59:37;;;;;;;;;;;15.60;64.30;;;;;;5045533;28;19980;-78
2023/04/14 10:02:03;;;;;;;;;;;15.60;64.20;;;;;;5042711;28;19917;-78
2023/04/14 10:04:29;;;;;;;;;;;15.70;64.10;;;;;;5032134;28;19925;-77
2023/04/14 10:06:55;;;;;;;;;;;15.80;64.00;;;;;;5045368;28;19990;-78
2023/04/14 10:09:21;;;;;;;;;;;15.80;64.00;;;;;;5044039;28;20557;-78
2023/04/14 10:11:47;;;;;;;;;;;15.80;64.00;;;;;;5042189;28;19925;-78
2023/04/14 10:14:13;;;;;;;;;;;15.90;63.90;;;;;;5019734;28;19928;-78
2023/04/14 10:16:38;;;;;;;;;;;15.90;63.90;;;;;;5030291;28;19921;-78
2023/04/14 10:19:04;;;;;;;;;;;15.90;63.90;;;;;;5029227;28;20762;-78
2023/04/14 10:21:29;;;;;;;;;;;15.80;63.80;;;;;;5029527;28;20008;-78
2023/04/14 10:23:55;;;;;;;;;;;15.80;63.80;;;;;;5044289;28;19971;-78
2023/04/14 10:26:21;;;;;;;;;;;15.70;63.90;;;;;;5040720;28;19924;-77
2023/04/14 10:28:47;;;;;;;;;;;15.70;64.00;;;;;;5040805;28;20092;-78
2023/04/14 10:31:19;;;;;;;;;;;15.60;64.00;;;;;;5021914;28;19982;-78
2023/04/14 10:33:45;;;;;;;;;;;15.50;64.10;;;;;;5032648;28;19925;-77
2023/04/14 10:36:10;;;;;;;;;;;15.50;64.20;;;;;;5031482;28;19922;-78
2023/04/14 10:38:41;;;;;;;;;;;15.40;64.30;;;;;;5045338;28;19943;-78
2023/04/14 10:41:06;;;;;;;;;;;15.30;64.30;;;;;;5056630;28;20057;-78
2023/04/14 10:43:34;;;;;;;;;;;15.30;64.40;;;;;;5043571;28;20451;-78
2023/04/14 10:45:59;;;;;;;;;;;15.30;64.50;;;;;;5055034;28;19921;-78
2023/04/14 10:48:25;;;;;;;;;;;15.30;64.50;;;;;;5057645;28;19975;-78
2023/04/14 10:50:54;;;;;;;;;;;15.20;64.40;;;;;;5039024;28;19960;-78
2023/04/14 10:53:23;;;;;;;;;;;15.20;64.50;;;;;;5057034;28;19929;-78
2023/04/14 10:55:48;;;;;;;;;;;15.30;64.50;;;;;;5057786;28;19928;-78
2023/04/14 10:58:18;;;;;;;;;;;15.20;64.50;;;;;;5048134;28;19920;-77
2023/04/14 11:00:43;;;;;;;;;;;15.20;64.50;;;;;;5056672;28;20036;-78
2023/04/14 11:03:09;;;;;;;;;;;15.10;64.40;;;;;;5023124;28;20598;-78
2023/04/14 11:05:35;;;;;;;;;;;15.10;64.50;;;;;;5060171;28;19921;-78
2023/04/14 11:08:10;;;;;;;;;;;15.00;64.50;;;;;;5059580;28;19927;-78
2023/04/14 11:10:36;;;;;;;;;;;15.00;64.60;;;;;;5038710;28;20004;-78
2023/04/14 11:13:19;;;;;;;;;;;15.00;64.60;;;;;;5040654;28;19917;-77
2023/04/14 11:15:46;;;;;;;;;;;15.00;64.70;;;;;;5042228;28;19921;-77
2023/04/14 11:18:13;;;;;;;;;;;15.00;64.70;;;;;;5056871;28;19928;-78
2023/04/14 11:20:38;;;;;;;;;;;15.00;64.60;;;;;;5054523;28;20003;-78
2023/04/14 11:23:04;;;;;;;;;;;15.00;64.60;;;;;;5040806;28;19968;-78
2023/04/14 11:25:30;;;;;;;;;;;15.20;64.70;;;;;;5024433;28;19921;-78
2023/04/14 11:27:55;;;;;;;;;;;15.30;64.60;;;;;;5017839;28;19925;-78
2023/04/14 11:30:21;;;;;;;;;;;15.60;64.50;;;;;;5042637;28;19924;-77
2023/04/14 11:32:46;;;;;;;;;;;15.70;64.30;;;;;;5055902;28;19963;-76
2023/04/14 11:35:12;;;;;;;;;;;15.90;64.00;;;;;;5026797;28;19928;-78
2023/04/14 11:37:37;;;;;;;;;;;16.10;64.00;;;;;;5064097;28;19928;-77
2023/04/14 11:40:04;;;;;;;;;;;16.20;63.70;;;;;;5065679;28;20621;-77
2023/04/14 11:42:30;;;;;;;;;;;16.30;63.40;;;;;;5047389;28;19964;-78
2023/04/14 11:44:56;;;;;;;;;;;16.40;63.30;;;;;;5031960;28;20823;-78
2023/04/14 11:47:22;;;;;;;;;;;16.40;63.20;;;;;;5052402;28;19920;-78
2023/04/14 11:49:47;;;;;;;;;;;16.40;63.20;;;;;;5059140;28;20539;-77
2023/04/14 11:52:13;;;;;;;;;;;16.40;63.20;;;;;;5032423;28;19922;-76
2023/04/14 11:54:38;;;;;;;;;;;16.50;63.20;;;;;;5048123;28;19960;-78
2023/04/14 11:57:10;;;;;;;;;;;16.50;63.30;;;;;;5068515;28;20044;-77
2023/04/14 11:59:45;;;;;;;;;;;16.50;63.30;;;;;;5052444;28;19920;-77
2023/04/14 12:02:14;;;;;;;;;;;16.60;63.20;;;;;;5065836;28;19928;-78
2023/04/14 12:04:39;;;;;;;;;;;16.60;63.10;;;;;;5052286;28;19939;-78
2023/04/14 12:07:09;;;;;;;;;;;16.60;63.00;;;;;;5032983;28;19921;-78
2023/04/14 12:09:34;;;;;;;;;;;16.60;63.00;;;;;;5062464;28;20004;-76
2023/04/14 12:12:00;;;;;;;;;;;16.60;63.10;;;;;;5050455;28;19917;-78
2023/04/14 12:14:26;;;;;;;;;;;16.60;63.00;;;;;;5065234;28;19968;-78
2023/04/14 12:16:51;;;;;;;;;;;16.60;63.10;;;;;;5032748;28;19956;-77
2023/04/14 12:19:16;;;;;;;;;;;16.60;63.10;;;;;;5032279;28;20411;-78
2023/04/14 12:21:49;;;;;;;;;;;16.50;63.00;;;;;;5060409;28;19998;-78
2023/04/14 12:24:14;;;;;;;;;;;16.50;63.10;;;;;;5064430;28;19927;-78
2023/04/14 12:26:40;;;;;;;;;;;16.50;64.00;;;;;;5061537;28;19921;-78
2023/04/14 12:29:07;;;;;;;;;;;16.50;64.00;;;;;;5045100;28;19920;-78
2023/04/14 12:31:32;;;;;;;;;;;16.40;63.20;;;;;;5060929;28;20427;-77
2023/04/14 12:34:02;;;;;;;;;;;16.50;63.20;;;;;;5031471;28;20425;-78
2023/04/14 12:36:27;;;;;;;;;;;16.40;63.20;;;;;;5066131;28;19924;-76
2023/04/14 12:38:53;;;;;;;;;;;16.40;63.20;;;;;;5050514;28;20318;-77
2023/04/14 12:41:22;;;;;;;;;;;16.60;63.20;;;;;;5038234;28;19920;-77
2023/04/14 12:43:47;;;;;;;;;;;16.60;63.10;;;;;;5059905;28;19936;-78
2023/04/14 12:46:20;;;;;;;;;;;16.70;63.00;;;;;;5066647;28;19924;-78
2023/04/14 12:48:47;;;;;;;;;;;16.90;63.00;;;;;;5061190;28;21064;-78
2023/04/14 12:51:13;;;;;;;;;;;17.00;62.80;;;;;;5061148;28;19947;-78
2023/04/14 12:53:38;;;;;;;;;;;17.20;62.70;;;;;;5057801;28;19920;-79
2023/04/14 12:56:08;;;;;;;;;;;17.40;62.50;;;;;;5051458;28;19931;-79
2023/04/14 12:58:35;;;;;;;;;;;17.60;62.20;;;;;;5041689;28;19956;-78
2023/04/14 13:01:00;;;;;;;;;;;17.70;62.00;;;;;;5048752;28;19923;-77
2023/04/14 13:03:37;;;;;;;;;;;17.80;61.90;;;;;;5056249;28;19917;-79
2023/04/14 13:06:02;;;;;;;;;;;18.00;61.80;;;;;;5048516;28;19970;-77
2023/04/14 13:08:28;;;;;;;;;;;18.20;61.60;;;;;;5038869;28;20598;-78
2023/04/14 13:10:54;;;;;;;;;;;18.30;61.50;;;;;;5048626;28;20385;-77
2023/04/14 13:13:19;;;;;;;;;;;18.50;61.20;;;;;;5054555;28;19927;-78
2023/04/14 13:15:45;;;;;;;;;;;18.60;61.10;;;;;;5064209;28;19920;-79
2023/04/14 13:18:10;;;;;;;;;;;18.80;61.00;;;;;;5048115;28;19932;-78
2023/04/14 13:20:36;;;;;;;;;;;18.80;60.80;;;;;;5052540;28;19966;-79
2023/04/14 13:23:01;;;;;;;;;;;18.90;60.80;;;;;;5041506;28;20275;-79
2023/04/14 13:25:27;;;;;;;;;;;19.00;61.50;;;;;;5034029;28;19951;-77
2023/04/14 13:27:53;;;;;;;;;;;19.10;60.60;;;;;;5049517;28;19921;-78
2023/04/14 13:30:18;;;;;;;;;;;19.10;60.40;;;;;;5048577;28;20703;-78
2023/04/14 13:32:44;;;;;;;;;;;19.20;60.40;;;;;;5047756;28;19921;-77
2023/04/14 13:35:09;;;;;;;;;;;19.20;60.40;;;;;;5052682;28;19928;-75
2023/04/14 13:37:34;;;;;;;;;;;19.20;60.30;;;;;;5066754;28;19921;-77
2023/04/14 13:40:00;;;;;;;;;;;19.20;60.30;;;;;;5036852;28;19931;-79
2023/04/14 13:42:25;;;;;;;;;;;19.20;60.50;;;;;;5034941;28;20419;-77
2023/04/14 13:44:51;;;;;;;;;;;19.30;60.40;;;;;;5051653;28;19920;-78
2023/04/14 13:47:17;;;;;;;;;;;19.50;60.30;;;;;;5054330;28;19925;-78
2023/04/14 13:49:43;;;;;;;;;;;19.60;60.10;;;;;;5064855;28;19964;-78
2023/04/14 13:52:08;;;;;;;;;;;19.80;60.00;;;;;;5067284;28;19952;-78
2023/04/14 13:54:34;;;;;;;;;;;20.00;59.90;;;;;;5066406;28;19947;-78
2023/04/14 13:56:59;;;;;;;;;;;20.10;59.70;;;;;;5054644;28;19966;-77
2023/04/14 13:59:25;;;;;;;;;;;20.20;59.50;;;;;;5038815;28;19921;-75
2023/04/14 14:01:51;;;;;;;;;;;20.30;59.50;;;;;;5045470;28;19928;-76
2023/04/14 14:04:16;;;;;;;;;;;20.30;59.40;;;;;;5048315;28;19924;-77
2023/04/14 14:06:42;;;;;;;;;;;20.50;59.40;;;;;;5059539;28;20443;-76
2023/04/14 14:09:07;;;;;;;;;;;20.60;59.30;;;;;;5064663;28;19920;-77
2023/04/14 14:11:33;;;;;;;;;;;20.70;59.10;;;;;;5033555;28;20066;-75
2023/04/14 14:13:58;;;;;;;;;;;20.80;59.00;;;;;;5061213;28;19927;-77
2023/04/14 14:16:24;;;;;;;;;;;20.90;58.80;;;;;;5043897;28;19921;-78
2023/04/14 14:18:50;;;;;;;;;;;20.90;58.80;;;;;;5051585;28;19932;-77
2023/04/14 14:21:15;;;;;;;;;;;20.90;58.80;;;;;;5063760;28;19947;-78